KSLC

Salt Lake City International Airport

Salt Lake City, Utah, USA
KSLC 201810Z 2018/2124 17012KT P6SM VCSH BKN070 BKN120 FM202100 32010KT P6SM VCSH SCT060 BKN080 FM210500 15007KT P6SM FEW060 SCT250 FM211700 32008KT P6SM FEW080
Issued Valid From Valid To
Apr-20 @ 18:10 UTC
(24 minutes ago)
Apr-20 @ 18:00 UTC
(34 minutes ago)
Apr-22 @ 00:00 UTC
(-1 days ago)
Apr-20 @ 18:00 to Apr-20 @ 21:00
KSLC 201810Z 2018/2124 17012KT P6SM VCSH BKN070 BKN120
Wind Visibility Clouds
170° at 12 knots Greater than 6 miles
  • Broken at 7,000' AGL
  • Broken at 12,000' AGL
From Apr-20 @ 21:00 to Apr-21 @ 05:00
FM202100 32010KT P6SM VCSH SCT060 BKN080
Wind Visibility Clouds
320° at 10 knots Greater than 6 miles
  • Scattered at 6,000' AGL
  • Broken at 8,000' AGL
From Apr-21 @ 05:00 to Apr-21 @ 17:00
FM210500 15007KT P6SM FEW060 SCT250
Wind Visibility Clouds
150° at 7 knots Greater than 6 miles
  • Few at 6,000' AGL
  • Scattered at 25,000' AGL
From Apr-21 @ 17:00 to Apr-22 @ 00:00
FM211700 32008KT P6SM FEW080
Wind Visibility Clouds
320° at 8 knots Greater than 6 miles
  • Few at 8,000' AGL
KSLC 201810Z 2018/2124 17012KT P6SM VCSH BKN070 BKN120 FM202100 32010KT P6SM VCSH SCT060 BKN080 FM210500 15007KT P6SM FEW060 SCT250 FM211700 32008KT P6SM FEW080
Issued Apr-20 @ 18:10 UTC
(24 minutes ago)
Valid From Apr-20 @ 18:00 UTC
(34 minutes ago)
Valid To Apr-22 @ 00:00 UTC
(-1 days ago)
Apr-20 @ 18:00 - Apr-20 @ 21:00
Wind Visibility
170° at 12 knots Greater than 6 miles
Clouds
  • Broken at 7,000' AGL
  • Broken at 12,000' AGL
From Apr-20 @ 21:00 - Apr-21 @ 05:00
Wind Visibility
320° at 10 knots Greater than 6 miles
Clouds
  • Scattered at 6,000' AGL
  • Broken at 8,000' AGL
From Apr-21 @ 05:00 - Apr-21 @ 17:00
Wind Visibility
150° at 7 knots Greater than 6 miles
Clouds
  • Few at 6,000' AGL
  • Scattered at 25,000' AGL
From Apr-21 @ 17:00 - Apr-22 @ 00:00
Wind Visibility
320° at 8 knots Greater than 6 miles
Clouds
  • Few at 8,000' AGL